Terminal Aerodrome Forecast
Issued by NWS

Current Version | Previous Version | Text Only | Print | Product List | Glossary On
Versions: 1 2 3 4 5 6 7 8 9 10 11 12 13 14 15
000
FTUS42 KFFC 211100
TAFRYY
TAF
KRYY 211134Z 2112/2212 VRB03KT P6SM SKC
     FM211400 29006KT P6SM FEW250
     FM211800 29010KT P6SM SCT050
     FM220000 27003KT P6SM BKN080
     FM220600 28005KT P6SM SCT025 BKN050=

USA.gov is the U.S. government's official web portal to all federal, state and local government web resources and services.